Accueil
METAR-TAF:

METAR-TAF

Aéroports :

Big Piney / Marbleton, Wyoming, États-Unis

latitude: 42-34-44N, longitude: 110-06-11W, altitude: 2126 m

Observation

Le bulletin a été fait il y a 57 minutes, à 05:53 UTC
Vent calme
Température -18°C
Humidité 77%
Pression 1025 hPa
Visibilité: 16.1 km
Ciel clair

METAR: KBPI 200553Z AUTO 00000KT 10SM CLR M18/M21 A3028 RMK AO2 SLP334 T11781206 11044 21178 57007

Heure: 23:50 (06:50 UTC)

Prévision

Le bulletin a été fait il y a 42 minutes, à 06:08 UTC
Prévision valable du 20 à 06 UTC au 21 à 06 UTC
Vent 4 kt de direction variable
Visibilité: 10 km
Quelques nuages à une hauteur de 15000 ft
A partir de 21 à 0300 UTC
Vent 4 kt de direction variable
Visibilité: 10 km
Nuages fragmentés à une hauteur de 15000 ft

TAF: KBPI 200608Z 2006/2106 VRB04KT P6SM FEW150 FM210300 VRB04KT P6SM BKN150

Observations et prévisions météorologiques de plus de 4000 aéroports (messages METAR et TAF).

Les stations disponibles sont représentées par des disques jaunes et rouges sur la carte.

Passer la souris dessus pour voir le nom de la station.

Cliquer dessus pour voir les observations et prévisions météorologiques.

Pour changer de carte: cliquez sur les boutons verts avec une croix noire pour zoomer, sur le bouton vert avec un tiret pour effectuer un zoom arrière, ou sur les flèches vertes pour les cartes adjacentes.


METAR-TAF: